Menlo, IA (50164)

2:51 AM CDT on July 14, 2014 (GMT -0500)
S.W. of Earlham (KIAEARLH2) Elev 1145 ft | 41.46 °N, 94.17 °W | Change Station

Current weather conditions updated 12 seconds ago

Scattered Clouds
Scattered Clouds
66.4 °F
Feels Like 66.4 °F
N
3.4
Wind Variable Wind from West
Gusts 4.9 mph

Today is forecast to be Much Cooler than yesterday.

Today
High -- | Low -- °F
--% Chance of Precip.
Yesterday
High -- | Low -- °F
Precip. -- in
5:56 AM 8:50 PM
Waning Gibbous, 95% visible
Pressure 29.94 in
Visibility 10.0 miles
Clouds Scattered Clouds 5500 ft
Scattered Clouds 8000 ft
Scattered Clouds 9000 ft
Dew Point 65 °F
Humidity 95%
Rainfall 0.00 in
Snow Depth Not available.
UV 0 out of 12
Pollen 2.70 out of 12
Air Quality Not available.
Flu Activity Sporadic
METAR KPRO 140735Z AUTO 30003KT 10SM SCT055 SCT080 SCT090 18/18 A2994 RMK AO2 T01830176

More Conditions Fewer Conditions

Pressure 29.94 in
Visibility 10.0 miles
Clouds Scattered Clouds 5500 ft
Scattered Clouds 8000 ft
Scattered Clouds 9000 ft
Dew Point 65 °F
Humidity 95%
Rainfall 0.00 in
Snow Depth Not available.
UV 0 out of 12
Pollen 2.70 out of 12
Air Quality Not available.
Flu Activity Sporadic
METAR KPRO 140735Z AUTO 30003KT 10SM SCT055 SCT080 SCT090 18/18 A2994 RMK AO2 T01830176

More Conditions Fewer Conditions

10-Day Weather Forecast

Almanac

Astronomy

Jul. 14, 2014 Rise Set
Actual Time 5:56 AM CDT 8:50 PM CDT
Civil Twilight 5:22 AM CDT 9:23 PM CDT
Nautical Twilight 4:41 AM CDT 10:05 PM CDT
Astronomical Twilight 3:52 AM CDT 10:53 PM CDT
Moon 10:17 PM CDT 8:42 AM CDT
Length of Visible Light 16h 00m
Length of Day
14h 54m
Tomorrow will be 1m 25s shorter.
Waning Gibbous, 95% of the Moon is Illuminated
Today
Waning Gibbous
Jul 18
Last Quarter
Jul 26
New
Aug 3
First Quarter
Aug 10
Full

Today's Extremes

State Highs State Lows

Community

WunderPhotos

Upload Photos

1,733,572 photos uploaded!

Nearby

Snow Depth

Station Depth Elevation
No new snow has been reported.

Earthquake Activity

City Distance Mag. Time & Date
No recent earthquake activity has been reported nearby.
Minimum magnitude displayed is 2.5.

Coastal Water Temperatures

Place Temperature
No Stations Reporting

Nearby Weather Stations

Station Location Temp. Dew Point Humidity Wind Precip. Elev Updated Type
S.W. of Earlham, Earlham, IA 66.4 °F 65 °F 95% West  at  3.4 mph 0.00 in / hr 1145 ft 2:51 AM CDT Rapid Fire
Stine Seed Co., Adel, IA 65.4 °F 64 °F 95% NW  at  0.0 mph 0.00 in / hr 1100 ft 2:51 AM CDT Rapid Fire

Show More Stations Show Fewer Stations